Latest Weather Observations for Albion Park

IDN60801

Issued at 1:05 pm EDT Saturday 29 November 2014 (issued every 30 minutes, with the page automatically refreshed every 10 minutes)

About weather observations | Map of weather stations | Latest weather observations for NSW | Other Formats
Station Details ID: 068241 Name: WOLLONGONG AIRPORT Lat: -34.56 Lon: 150.79 Height: 8.0 m
Data from the previous 72 hours. | See also: Recent months at Albion Park
Date/Time
EDT
Temp
°C
App
Temp
°C
Dew
Point
Rel
Hum
%
Delta-T
°C
Wind Press
QNH
hPa
Press
MSL
hPa
Rain
since 9 am
mm
Dir
 
Spd
km/h
Gust
km/h
Spd
kts
Gust
kts
29/01:00pm 24.8 22.2 16.8 61 4.9 NE 26 35 14 19 1016.2 1016.2 0.0
29/12:30pm 24.5 21.8 17.5 65 4.4 NE 28 33 15 18 1016.6 1016.6 0.0
29/12:00pm 24.3 21.9 17.3 65 4.3 NE 26 32 14 17 1017.1 1017.1 0.0
29/11:30am 24.3 22.3 17.5 66 4.2 ENE 24 32 13 17 1017.4 1017.4 0.0
29/11:00am 24.5 22.7 17.0 63 4.6 ENE 22 28 12 15 1017.8 1017.8 0.0
29/10:30am 24.5 22.3 14.3 53 6.0 N 19 28 10 15 1018.2 1018.2 0.0
29/10:00am 24.4 22.7 14.8 55 5.7 N 17 26 9 14 1018.5 1018.5 0.0
29/09:30am 22.8 20.9 15.1 62 4.6 NNW 19 30 10 16 1018.8 1018.8 0.0
29/09:00am 22.6 20.5 15.2 63 4.4 NNW 20 24 11 13 1019.3 1019.3 0.0
29/08:30am 21.9 20.7 16.0 69 3.6 N 17 24 9 13 1019.6 1019.6 0.0
29/08:00am 19.7 20.3 15.4 76 2.5 NW 6 7 3 4 1019.6 1019.6 0.0
29/07:30am 17.4 19.2 15.6 89 1.1 CALM 0 0 0 0 1019.5 1019.5 0.0
29/07:00am 14.9 14.2 14.4 97 0.3 W 11 13 6 7 1019.4 1019.4 0.0
29/06:30am 13.7 14.8 13.5 99 0.1 CALM 0 0 0 0 1019.3 1019.3 0.0
29/06:00am 13.0 13.9 12.8 99 0.1 CALM 0 7 0 4 1019.3 1019.3 0.0
29/05:30am 12.1 11.5 11.8 98 0.2 W 6 9 3 5 1019.2 1019.2 0.0
29/05:00am 12.8 13.6 12.5 98 0.2 CALM 0 0 0 0 1019.1 1019.1 0.0
29/04:30am 12.6 11.9 12.0 96 0.3 W 7 7 4 4 1019.0 1019.0 0.0
29/04:00am 12.9 12.5 12.3 96 0.3 WNW 6 7 3 4 1019.1 1019.1 0.0
29/03:30am 13.7 13.5 13.1 96 0.3 WSW 6 9 3 5 1019.3 1019.3 0.0
29/03:00am 13.4 12.9 12.5 94 0.5 W 7 9 4 5 1019.4 1019.4 0.0
29/02:30am 14.5 15.1 13.2 92 0.7 WNW 2 6 1 3 1019.5 1019.5 0.0
29/02:00am 15.3 14.4 13.8 91 0.8 WNW 11 15 6 8 1019.7 1019.7 0.0
29/01:30am 15.1 14.5 13.6 91 0.8 W 9 11 5 6 1020.0 1020.0 0.0
29/01:00am 15.5 15.0 13.9 90 0.9 W 9 11 5 6 1020.4 1020.4 0.0
29/12:30am 16.4 16.0 14.1 86 1.3 W 9 9 5 5 1020.6 1020.6 0.0
29/12:00am 17.0 16.5 13.9 82 1.8 W 9 11 5 6 1020.9 1020.9 0.0
 
Date/Time
EDT
Temp
°C
App
Temp
°C
Dew
Point
Rel
Hum
%
Delta-T
°C
Wind Press
QNH
hPa
Press
MSL
hPa
Rain
since 9 am
mm
Dir
 
Spd
km/h
Gust
km/h
Spd
kts
Gust
kts
28/11:30pm 17.5 17.7 14.6 83 1.7 WNW 7 9 4 5 1021.1 1021.1 0.0
28/11:00pm 17.5 17.5 14.2 81 1.9 W 7 11 4 6 1021.3 1021.3 0.0
28/10:30pm 17.8 18.3 14.1 79 2.1 NW 4 6 2 3 1021.4 1021.4 0.0
28/10:00pm 18.2 18.2 14.1 77 2.3 NNW 7 11 4 6 1021.3 1021.3 0.0
28/09:30pm 18.4 18.3 13.9 75 2.6 NW 7 9 4 5 1021.0 1021.0 0.0
28/09:00pm 19.0 18.1 13.6 71 3.1 NNW 11 13 6 7 1020.8 1020.8 0.0
28/08:30pm 19.4 18.1 13.6 69 3.3 N 13 19 7 10 1020.5 1020.5 0.0
28/08:00pm 19.7 17.6 13.6 68 3.5 N 17 22 9 12 1020.3 1020.3 0.0
28/07:30pm 20.1 18.1 14.0 68 3.5 NE 17 24 9 13 1020.4 1020.4 0.0
28/07:00pm 20.2 17.7 13.6 66 3.8 NE 19 26 10 14 1020.4 1020.4 0.0
28/06:30pm 20.3 17.6 12.8 62 4.2 NE 19 26 10 14 1020.4 1020.4 0.0
28/06:00pm 20.6 18.0 13.3 63 4.2 NE 19 24 10 13 1020.3 1020.3 0.0
28/05:30pm 20.6 17.8 13.3 63 4.2 NE 20 26 11 14 1020.3 1020.3 0.0
28/05:00pm 21.4 18.0 13.6 61 4.5 NE 24 32 13 17 1020.3 1020.3 0.0
28/04:30pm 21.8 19.0 13.2 58 4.9 NE 20 28 11 15 1020.5 1020.5 0.0
28/04:00pm 21.6 17.9 11.6 53 5.6 NE 22 32 12 17 1020.7 1020.7 0.0
28/03:30pm 22.1 18.6 12.1 53 5.6 NE 22 30 12 16 1021.1 1021.1 0.0
28/03:00pm 21.9 18.0 12.2 54 5.5 NE 24 32 13 17 1021.2 1021.2 0.0
28/02:30pm 21.4 17.9 10.9 51 5.8 NE 20 26 11 14 1021.5 1021.5 0.0
28/02:00pm 22.2 19.1 12.2 53 5.6 NE 20 26 11 14 1021.9 1021.9 0.0
28/01:30pm 21.3 18.0 10.8 51 5.8 NE 19 26 10 14 1022.3 1022.3 0.0
28/01:00pm 21.4 18.5 10.9 51 5.7 NE 17 24 9 13 1022.7 1022.7 0.0
28/12:30pm 21.7 18.8 11.1 51 5.9 ENE 17 24 9 13 1023.1 1023.1 0.0
28/12:00pm 21.2 18.4 11.5 54 5.4 NE 17 22 9 12 1023.5 1023.5 0.0
28/11:30am 21.1 18.8 11.7 55 5.2 NE 15 22 8 12 1023.7 1023.7 0.0
28/11:00am 21.1 18.3 11.4 54 5.3 ENE 17 22 9 12 1023.9 1023.9 0.0
28/10:30am 20.5 17.1 10.6 53 5.4 ENE 19 24 10 13 1024.0 1024.0 0.0
28/10:00am 20.4 17.7 10.2 52 5.5 NE 15 19 8 10 1024.2 1024.2 0.0
28/09:30am 19.4 17.6 10.7 57 4.7 NE 11 19 6 10 1024.2 1024.2 0.0
28/09:00am 19.9 18.3 11.4 58 4.7 ENE 11 19 6 10 1024.2 1024.2 0.0
28/08:30am 19.5 18.9 11.8 61 4.3 S 6 13 3 7 1024.1 1024.1 0.0
28/08:00am 17.5 18.3 13.6 78 2.2 W 2 7 1 4 1023.9 1023.9 0.0
28/07:30am 15.7 15.1 13.4 86 1.3 W 9 11 5 6 1023.7 1023.7 0.0
28/07:00am 14.0 13.6 13.1 94 0.5 W 7 9 4 5 1023.4 1023.4 0.0
28/06:30am 12.5 11.1 12.3 99 0.1 W 11 13 6 7 1023.3 1023.3 0.0
28/06:00am 10.5 9.3 10.3 99 0.1 SSW 7 9 4 5 1023.0 1023.0 0.0
28/05:30am 10.7 10.9 10.5 99 0.1 CALM 0 6 0 3 1022.9 1022.9 0.0
28/05:00am 11.0 10.5 10.8 99 0.1 SSW 4 11 2 6 1022.7 1022.7 0.0
28/04:30am 11.5 10.8 11.3 99 0.1 SSW 6 7 3 4 1022.6 1022.6 0.0
28/04:00am 11.8 11.0 11.6 99 0.1 SSW 7 9 4 5 1022.7 1022.7 0.0
28/03:30am 12.4 13.1 12.2 99 0.1 CALM 0 0 0 0 1022.8 1022.8 0.0
28/03:00am 12.7 12.2 12.5 99 0.1 SSW 7 9 4 5 1023.0 1023.0 0.0
28/02:30am 12.7 11.7 12.2 97 0.3 SSW 9 11 5 6 1023.0 1023.0 0.0
28/02:00am 13.8 13.8 13.6 99 0.1 SSW 6 7 3 4 1023.2 1023.2 0.0
28/01:30am 13.9 14.6 13.4 97 0.3 SSW 2 7 1 4 1023.6 1023.6 0.0
28/01:00am 14.4 13.9 13.9 97 0.3 SSW 9 11 5 6 1023.7 1023.7 0.0
28/12:30am 14.4 14.5 13.9 97 0.3 SSW 6 7 3 4 1024.1 1024.1 0.0
28/12:00am 14.8 14.9 14.0 95 0.4 SSW 6 7 3 4 1024.4 1024.4 0.0
 
Date/Time
EDT
Temp
°C
App
Temp
°C
Dew
Point
Rel
Hum
%
Delta-T
°C
Wind Press
QNH
hPa
Press
MSL
hPa
Rain
since 9 am
mm
Dir
 
Spd
km/h
Gust
km/h
Spd
kts
Gust
kts
27/11:30pm 15.6 15.8 14.6 94 0.6 SSW 7 9 4 5 1024.7 1024.7 0.0
27/11:00pm 16.1 16.0 15.0 93 0.6 SSW 9 11 5 6 1024.8 1024.8 0.0
27/10:30pm 16.5 16.8 15.0 91 0.9 SSW 7 9 4 5 1024.8 1024.8 0.0
27/10:00pm 16.6 17.0 14.8 89 1.0 SSW 6 7 3 4 1024.9 1024.9 0.0
27/09:30pm 16.6 16.8 14.6 88 1.1 SSW 7 9 4 5 1024.8 1024.8 0.0
27/09:00pm 16.9 16.9 14.2 84 1.5 S 7 13 4 7 1024.5 1024.5 0.0
27/08:30pm 17.0 16.7 14.5 85 1.4 S 9 13 5 7 1024.0 1024.0 0.0
27/08:00pm 17.4 16.9 13.7 79 2.1 S 9 15 5 8 1023.9 1023.9 0.0
27/07:30pm 17.7 16.5 14.0 79 2.1 S 13 15 7 8 1023.7 1023.7 0.0
27/07:00pm 17.8 16.6 13.9 78 2.2 S 13 15 7 8 1023.5 1023.5 0.0
27/06:30pm 17.9 17.0 13.8 77 2.3 SSE 11 17 6 9 1023.3 1023.3 0.0
27/06:20pm 18.2 17.5 14.3 78 2.2 SSE 11 13 6 7 1023.2 1023.2 0.0
27/06:03pm 18.2 17.4 13.9 76 2.5 S 11 19 6 10 1023.0 1023.0 0.0
27/06:00pm 18.2 17.4 13.9 76 2.4 SSE 11 19 6 10 1023.0 1023.0 0.0
27/05:30pm 18.3 17.2 14.2 77 2.4 S 13 20 7 11 1023.0 1023.0 0.0
27/05:00pm 18.4 16.8 13.9 75 2.6 SSE 15 24 8 13 1023.0 1023.0 0.0
27/04:30pm 18.5 17.2 13.8 74 2.7 SSE 13 20 7 11 1023.1 1023.1 0.0
27/04:26pm 18.5 16.9 13.8 74 2.7 SSE 15 20 8 11 1023.1 1023.1 0.0
27/04:00pm 18.4 16.7 13.7 74 2.7 SSE 15 26 8 14 1023.0 1023.0 0.0
27/03:34pm 18.4 16.7 14.7 79 2.1 SSE 17 24 9 13 1023.0 1023.0 0.0
27/03:30pm 18.3 16.5 14.4 78 2.2 S 17 24 9 13 1023.0 1023.0 0.0
27/03:21pm 18.2 16.7 14.1 77 2.3 S 15 24 8 13 1023.0 1023.0 0.0
27/03:00pm 18.1 15.8 14.2 78 2.2 S 19 24 10 13 1023.0 1023.0 0.0
27/02:30pm 18.8 17.0 14.5 76 2.5 SE 17 22 9 12 1022.9 1022.9 0.0
27/02:09pm 18.7 16.8 14.2 75 2.6 SSE 17 26 9 14 1023.0 1023.0 0.0
27/02:00pm 18.9 17.2 14.6 76 2.5 SSE 17 26 9 14 1023.0 1023.0 0.0
27/01:37pm 18.5 17.0 14.2 76 2.5 SSE 15 24 8 13 1023.1 1023.1 0.0
27/01:30pm 18.6 17.3 14.7 78 2.3 S 15 22 8 12 1023.0 1023.0 0.0
27/01:14pm 18.6 17.6 14.5 77 2.4 SSE 13 24 7 13 1023.0 1023.0 0.0
27/01:00pm 18.6 17.2 14.5 77 2.4 S 15 24 8 13 1023.2 1023.2 0.0
27/12:30pm 18.1 16.8 14.8 81 1.9 S 15 20 8 11 1023.3 1023.3 0.0
27/12:00pm 18.1 16.6 15.4 84 1.6 S 17 20 9 11 1023.6 1023.6 0.0
27/11:30am 17.7 17.3 15.3 86 1.4 S 11 17 6 9 1023.5 1023.5 0.0
27/11:00am 17.4 15.8 14.9 85 1.4 S 17 20 9 11 1023.4 1023.4 0.0
27/10:30am 16.8 15.7 15.3 91 0.9 SSE 15 20 8 11 1023.2 1023.2 0.0
27/10:25am 17.0 16.4 15.7 92 0.8 SSE 13 20 7 11 1023.1 1023.1 0.0
27/10:00am 17.1 16.5 15.6 91 0.9 SSE 13 19 7 10 1023.1 1023.1 0.0
27/09:30am 17.1 17.2 15.6 91 0.9 SSE 9 13 5 7 1023.0 1023.0 0.0
27/09:12am 17.1 16.8 15.4 90 1.0 SSE 11 20 6 11 1022.9 1022.9 0.0
27/09:00am 17.0 17.0 15.3 90 1.0 S 9 15 5 8 1022.8 1022.8 13.6
27/08:36am 16.9 16.8 15.9 94 0.6 SSE 11 15 6 8 1022.8 1022.8 13.6
27/08:30am 16.8 16.3 15.8 94 0.6 SSE 13 17 7 9 1022.8 1022.8 13.6
27/08:22am 16.8 16.7 16.0 95 0.5 S 11 17 6 9 1022.8 1022.8 13.6
27/08:11am 16.7 17.0 16.1 96 0.4 S 9 13 5 7 1022.7 1022.7 13.6
27/08:00am 16.5 16.4 15.9 96 0.4 S 11 17 6 9 1022.6 1022.6 13.6
27/07:56am 16.6 16.1 16.0 96 0.4 S 13 17 7 9 1022.6 1022.6 13.6
27/07:38am 16.4 17.0 15.8 96 0.4 S 7 15 4 8 1022.5 1022.5 13.6
27/07:37am 16.4 17.0 15.8 96 0.4 S 7 15 4 8 1022.5 1022.5 13.6
27/07:30am 16.4 17.0 15.8 96 0.4 S 7 13 4 7 1022.4 1022.4 13.6
27/07:20am 16.4 17.0 15.8 96 0.4 S 7 11 4 6 1022.2 1022.2 13.6
27/07:16am 16.4 16.9 15.6 95 0.5 S 7 11 4 6 1022.2 1022.2 13.6
27/07:00am 16.3 16.4 15.5 95 0.5 S 9 11 5 6 1021.9 1021.9 13.6
27/06:30am 16.0 15.7 15.5 97 0.3 S 11 13 6 7 1021.7 1021.7 13.6
27/06:00am 15.8 15.4 15.3 97 0.3 S 11 20 6 11 1021.6 1021.6 13.4
27/05:39am 15.8 15.1 15.3 97 0.3 SSE 13 22 7 12 1021.3 1021.3 13.4
27/05:35am 15.9 15.2 15.4 97 0.3 S 13 22 7 12 1021.3 1021.3 13.4
27/05:30am 15.9 14.4 15.4 97 0.3 S 17 28 9 15 1021.2 1021.2 13.4
27/05:26am 15.9 14.4 15.4 97 0.3 SSE 17 28 9 15 1021.2 1021.2 13.4
27/05:00am 16.0 16.7 15.5 97 0.3 S 6 17 3 9 1020.9 1020.9 13.4
27/04:40am 16.2 16.5 15.9 98 0.2 S 9 15 5 8 1020.6 1020.6 13.4
27/04:30am 16.1 16.3 15.8 98 0.2 S 9 15 5 8 1020.4 1020.4 13.2
27/04:16am 16.1 15.6 15.8 98 0.2 S 13 20 7 11 1020.2 1020.2 13.2
27/04:00am 16.0 14.3 15.8 99 0.1 S 19 28 10 15 1020.1 1020.1 13.2
27/03:52am 16.0 14.1 15.8 99 0.1 S 20 28 11 15 1020.0 1020.0 13.2
27/03:30am 16.2 14.0 16.0 99 0.1 S 22 30 12 16 1019.8 1019.8 13.0
27/03:19am 16.4 14.7 16.2 99 0.1 S 20 30 11 16 1019.7 1019.7 13.0
27/03:16am 16.4 14.7 16.2 99 0.1 S 20 30 11 16 1019.7 1019.7 13.0
27/03:00am 16.6 15.0 16.4 99 0.1 S 20 28 11 15 1019.6 1019.6 12.6
27/02:43am 16.8 15.2 16.6 99 0.1 S 20 28 11 15 1019.6 1019.6 12.0
27/02:32am 17.1 15.7 16.9 99 0.1 S 20 28 11 15 1019.6 1019.6 11.8
27/02:30am 17.1 15.7 16.9 99 0.1 S 20 26 11 14 1019.6 1019.6 11.8
27/02:07am 17.2 15.7 16.7 97 0.3 S 20 32 11 17 1019.6 1019.6 7.0
27/02:01am 17.5 16.9 16.7 95 0.5 S 15 20 8 11 1019.7 1019.7 1.2
27/02:00am 17.6 17.1 16.8 95 0.5 S 15 20 8 11 1019.7 1019.7 0.8
27/01:30am 18.4 15.3 16.6 89 1.1 S 28 37 15 20 1019.5 1019.5 0.0
27/01:28am 18.5 15.5 16.7 89 1.1 S 28 37 15 20 1019.5 1019.5 0.0
27/01:00am 18.2 18.9 17.0 93 0.7 SSE 9 11 5 6 1019.6 1019.6 0.0
27/12:30am 19.3 20.5 17.4 89 1.2 SSE 7 11 4 6 1019.7 1019.7 0.0
27/12:00am 19.3 20.7 17.8 91 0.9 SSE 7 11 4 6 1019.8 1019.8 0.0
 
Date/Time
EDT
Temp
°C
App
Temp
°C
Dew
Point
Rel
Hum
%
Delta-T
°C
Wind Press
QNH
hPa
Press
MSL
hPa
Rain
since 9 am
mm
Dir
 
Spd
km/h
Gust
km/h
Spd
kts
Gust
kts
26/11:30pm 19.7 20.6 17.5 87 1.3 SSE 9 13 5 7 1019.7 1019.7 0.0
26/11:00pm 19.8 20.6 17.4 86 1.5 SE 9 11 5 6 1019.7 1019.7 0.0
26/10:30pm 20.3 20.9 16.7 80 2.2 E 9 11 5 6 1019.5 1019.5 0.0
26/10:00pm 20.7 20.5 16.7 78 2.4 E 13 17 7 9 1019.4 1019.4 0.0
26/09:30pm 21.0 19.7 16.8 77 2.6 ENE 19 24 10 13 1019.2 1019.2 0.0
26/09:00pm 20.9 19.7 17.1 79 2.3 ENE 19 26 10 14 1018.8 1018.8 0.0
26/08:30pm 21.1 19.7 17.1 78 2.4 ENE 20 28 11 15 1018.4 1018.4 0.0
26/08:00pm 21.4 20.0 17.0 76 2.7 ENE 20 28 11 15 1018.2 1018.2 0.0
26/07:58pm 21.3 19.9 16.9 76 2.7 ENE 20 28 11 15 1018.2 1018.2 0.0
26/07:30pm 21.3 20.2 17.7 80 2.2 E 20 24 11 13 1017.8 1017.8 0.0
26/07:00pm 21.4 20.7 17.4 78 2.5 ENE 17 22 9 12 1017.4 1017.4 0.0
26/06:30pm 21.6 19.9 17.2 76 2.7 NE 22 30 12 16 1016.8 1016.8 0.0
26/06:00pm 21.7 19.6 17.1 75 2.8 NE 24 32 13 17 1016.3 1016.3 0.0
26/05:30pm 21.9 19.0 17.1 74 2.9 NE 28 39 15 21 1015.9 1015.9 0.0
26/05:00pm 21.9 18.5 16.8 73 3.1 NE 30 41 16 22 1015.7 1015.7 0.0
26/04:30pm 22.5 18.8 17.0 71 3.4 NE 32 43 17 23 1015.5 1015.5 0.0
26/04:00pm 23.3 19.5 16.8 67 4.0 NE 32 44 17 24 1015.4 1015.4 0.0
26/03:30pm 23.5 19.4 17.3 68 3.8 NE 35 46 19 25 1015.5 1015.5 0.0
26/03:00pm 23.5 19.4 16.5 65 4.3 NE 33 46 18 25 1015.6 1015.6 0.0
26/02:30pm 23.9 20.0 16.9 65 4.3 NE 33 46 18 25 1015.6 1015.6 0.0
26/02:00pm 24.3 20.3 16.8 63 4.6 NE 33 50 18 27 1015.8 1015.8 0.0
26/01:30pm 23.4 19.9 15.5 61 4.7 NE 28 41 15 22 1016.1 1016.1 0.0

Other Formats:

Comma delimited format used in spreadsheet applications
http://www.bom.gov.au/fwo/IDN60801/IDN60801.95748.axf

JavaScript Object Notation format (JSON) in row-major order
http://www.bom.gov.au/fwo/IDN60801/IDN60801.95748.json